Time;durP1;ratioP1;P1;durP2;ratioP2;P2;SDS_P1;SDS_P2;PMS_P1;PMS_P2;Temp;Humidity;BMP_temperature;BMP_pressure;BME280_temperature;BME280_humidity;BME280_pressure;Samples;Min_cycle;Max_cycle;Signal;HPM_P1;HPM_P2
2023/07/26 00:00:02;;;;;;;27.85;16.27;;;;;;;17.89;79.02;99455.50;6094422;23;20633;-81
2023/07/26 00:02:39;;;;;;;30.00;15.95;;;;;;;17.88;79.06;99469.94;6119263;23;20021;-81
2023/07/26 00:05:06;;;;;;;36.15;16.33;;;;;;;17.86;79.28;99469.31;6094162;23;20033;-84
2023/07/26 00:07:33;;;;;;;37.88;17.95;;;;;;;17.87;79.21;99470.97;6118820;23;20021;-81
2023/07/26 00:09:59;;;;;;;30.15;17.27;;;;;;;17.84;79.47;99475.91;6093933;23;20076;-81
2023/07/26 00:12:26;;;;;;;33.60;17.17;;;;;;;17.83;79.26;99474.22;6121154;23;20037;-81
2023/07/26 00:14:53;;;;;;;32.95;17.10;;;;;;;17.83;79.40;99474.22;6047380;23;20345;-81
2023/07/26 00:17:20;;;;;;;30.25;17.17;;;;;;;17.81;79.50;99482.50;6095664;23;20076;-82
2023/07/26 00:19:47;;;;;;;35.70;17.92;;;;;;;17.78;79.44;99480.13;6071578;23;20029;-81
2023/07/26 00:22:14;;;;;;;31.45;17.65;;;;;;;17.75;79.66;99481.34;6096665;23;20064;-81
2023/07/26 00:24:41;;;;;;;30.75;16.80;;;;;;;17.73;79.80;99471.81;6070288;23;20406;-82
2023/07/26 00:27:08;;;;;;;34.75;17.67;;;;;;;17.73;79.84;99480.75;6096400;23;20018;-81
2023/07/26 00:29:34;;;;;;;34.03;17.15;;;;;;;17.71;79.64;99485.47;6119990;23;20025;-81
2023/07/26 00:32:01;;;;;;;34.38;16.63;;;;;;;17.69;79.79;99484.00;6118812;23;20120;-82
2023/07/26 00:34:28;;;;;;;35.20;17.67;;;;;;;17.67;79.77;99484.16;6071455;23;20021;-81
2023/07/26 00:36:55;;;;;;;27.67;16.75;;;;;;;17.66;79.69;99485.19;6047772;23;20025;-81
2023/07/26 00:39:22;;;;;;;29.75;15.68;;;;;;;17.66;80.09;99479.00;6096904;23;20113;-81
2023/07/26 00:41:49;;;;;;;30.98;17.10;;;;;;;17.64;79.64;99489.91;6120391;23;20080;-81
2023/07/26 00:44:15;;;;;;;35.05;17.00;;;;;;;17.64;79.29;99489.91;6046931;23;20502;-81
2023/07/26 00:46:42;;;;;;;27.73;15.85;;;;;;;17.65;79.50;99493.44;6119606;23;20014;-81
2023/07/26 00:49:09;;;;;;;30.17;16.63;;;;;;;17.63;79.92;99490.09;6094508;23;20033;-81
2023/07/26 00:51:38;;;;;;;30.95;16.60;;;;;;;17.63;79.29;99490.09;6096733;23;20014;-81
2023/07/26 00:54:08;;;;;;;29.38;16.77;;;;;;;17.62;79.55;99483.09;6094697;23;20057;-81
2023/07/26 00:56:35;;;;;;;34.20;16.77;;;;;;;17.61;79.81;99484.13;6094875;23;20029;-81
2023/07/26 00:59:02;;;;;;;33.80;17.05;;;;;;;17.58;79.86;99488.00;6071918;23;20863;-81
2023/07/26 01:01:32;;;;;;;29.73;15.68;;;;;;;17.56;79.82;99496.25;6095756;23;20743;-81
2023/07/26 01:03:59;;;;;;;36.22;17.00;;;;;;;17.56;79.90;99498.09;6071177;23;20017;-81
2023/07/26 01:06:34;;;;;;;29.52;16.98;;;;;;;17.54;80.24;99500.13;6072177;23;20420;-81
2023/07/26 01:09:25;;;;;;;29.80;15.90;;;;;;;17.47;80.31;99504.59;6095710;23;20096;-81
2023/07/26 01:12:10;;;;;;;35.70;16.17;;;;;;;17.47;80.03;99493.84;6096034;23;20013;-81
2023/07/26 01:14:41;;;;;;;28.08;15.38;;;;;;;17.50;79.81;99494.31;6070354;23;20044;-81
2023/07/26 01:17:08;;;;;;;29.50;16.05;;;;;;;17.51;80.25;99495.97;6120074;23;20037;-81
2023/07/26 01:19:35;;;;;;;32.03;16.45;;;;;;;17.54;79.56;99506.34;6095664;23;20025;-81
2023/07/26 01:22:02;;;;;;;36.75;15.90;;;;;;;17.55;79.66;99499.09;6094380;23;20049;-81
2023/07/26 01:24:29;;;;;;;35.85;16.73;;;;;;;17.55;80.05;99496.41;6070044;23;20057;-85
2023/07/26 01:26:56;;;;;;;32.67;16.63;;;;;;;17.55;79.78;99493.72;6072433;23;20037;-81
2023/07/26 01:29:23;;;;;;;30.95;16.88;;;;;;;17.56;79.28;99495.41;6145838;23;20022;-81
2023/07/26 01:31:52;;;;;;;30.90;16.58;;;;;;;17.56;79.27;99503.47;6119119;23;20036;-81
2023/07/26 01:34:19;;;;;;;40.45;16.42;;;;;;;17.54;79.52;99500.97;6094150;23;20740;-81
2023/07/26 01:36:47;;;;;;;29.42;16.67;;;;;;;17.51;79.69;99501.34;6095404;23;20112;-81
2023/07/26 01:39:15;;;;;;;31.10;16.20;;;;;;;17.55;78.54;99512.53;6119400;23;20017;-81
2023/07/26 01:41:43;;;;;;;30.08;16.05;;;;;;;17.51;78.35;99501.34;6071392;23;20457;-81
2023/07/26 01:44:11;;;;;;;30.40;16.27;;;;;;;17.51;79.15;99505.88;6095255;23;20116;-81
2023/07/26 01:46:38;;;;;;;34.85;17.65;;;;;;;17.48;79.36;99506.28;6119648;23;20026;-81
2023/07/26 01:49:05;;;;;;;32.13;16.83;;;;;;;17.47;79.60;99501.91;6094252;23;20105;-81
2023/07/26 01:51:32;;;;;;;32.63;14.90;;;;;;;17.44;79.78;99508.47;6072414;23;20345;-81
2023/07/26 01:53:59;;;;;;;35.83;15.95;;;;;;;17.40;80.23;99507.19;6093763;23;20021;-81
2023/07/26 01:56:26;;;;;;;28.85;15.73;;;;;;;17.40;80.26;99506.34;6095163;23;20025;-82
2023/07/26 01:58:52;;;;;;;30.80;15.63;;;;;;;17.39;80.27;99508.22;6095649;23;20442;-81
2023/07/26 02:01:19;;;;;;;30.17;16.23;;;;;;;17.36;80.08;99506.75;6070053;23;20051;-81
2023/07/26 02:03:46;;;;;;;32.15;15.43;;;;;;;17.35;80.06;99518.50;6093040;23;20029;-82
2023/07/26 02:06:13;;;;;;;27.42;16.00;;;;;;;17.35;80.05;99523.00;6096172;23;20034;-81
2023/07/26 02:08:40;;;;;;;37.20;16.63;;;;;;;17.32;79.96;99518.03;6094960;23;20033;-81
2023/07/26 02:11:07;;;;;;;30.50;15.93;;;;;;;17.33;80.17;99525.09;6071736;23;20068;-81
2023/07/26 02:13:33;;;;;;;35.10;16.98;;;;;;;17.30;80.19;99530.78;6117699;23;20044;-81
2023/07/26 02:16:00;;;;;;;31.45;17.05;;;;;;;17.29;80.06;99526.47;6070313;23;20025;-81
2023/07/26 02:18:31;;;;;;;26.13;14.60;;;;;;;17.29;80.22;99531.81;6072281;23;20402;-81
2023/07/26 02:20:59;;;;;;;28.00;14.57;;;;;;;17.28;80.22;99532.84;6094532;23;20088;-82
2023/07/26 02:23:25;;;;;;;36.15;16.15;;;;;;;17.26;80.02;99534.88;6094694;23;20476;-81
2023/07/26 02:25:52;;;;;;;30.48;15.20;;;;;;;17.27;79.93;99534.69;6094726;23;20109;-81
2023/07/26 02:28:23;;;;;;;29.60;16.20;;;;;;;17.24;79.86;99536.91;6095718;23;20018;-81
2023/07/26 02:30:49;;;;;;;26.02;15.00;;;;;;;17.21;79.94;99526.56;6094876;23;20021;-81
2023/07/26 02:33:16;;;;;;;31.73;15.63;;;;;;;17.20;80.08;99532.94;6094106;23;20029;-81
2023/07/26 02:35:43;;;;;;;33.00;15.18;;;;;;;17.17;80.15;99534.13;6095003;23;20356;-81
2023/07/26 02:38:10;;;;;;;31.00;14.38;;;;;;;17.20;79.70;99544.53;6093993;23;20101;-81
2023/07/26 02:40:37;;;;;;;33.30;14.50;;;;;;;17.16;79.58;99545.06;6119962;23;20072;-81
2023/07/26 02:43:04;;;;;;;31.40;15.20;;;;;;;17.15;79.63;99549.63;6070147;23;20049;-81
2023/07/26 02:45:32;;;;;;;36.47;15.13;;;;;;;17.16;79.73;99550.44;6095094;23;20460;-81
2023/07/26 02:48:00;;;;;;;28.77;15.00;;;;;;;17.16;79.92;99550.44;6070696;23;20025;-81
2023/07/26 02:50:26;;;;;;;23.88;13.00;;;;;;;17.16;79.57;99550.44;6093738;23;20030;-81
2023/07/26 02:52:53;;;;;;;24.00;13.63;;;;;;;17.14;79.38;99553.28;6095007;23;20100;-81
2023/07/26 02:55:20;;;;;;;25.42;13.52;;;;;;;17.15;79.45;99554.97;6093586;23;20104;-81
2023/07/26 02:57:47;;;;;;;25.23;13.13;;;;;;;17.13;79.05;99552.47;6118723;23;20032;-81
2023/07/26 03:00:14;;;;;;;30.85;14.20;;;;;;;17.13;79.29;99554.31;6094420;23;20013;-80
2023/07/26 03:02:41;;;;;;;28.52;12.95;;;;;;;17.13;79.22;99559.69;6094055;23;20030;-81
2023/07/26 03:05:08;;;;;;;33.85;13.82;;;;;;;17.12;79.47;99558.00;6118977;23;20096;-81
2023/07/26 03:07:35;;;;;;;24.85;13.52;;;;;;;17.14;79.47;99561.34;6118775;23;20029;-80
2023/07/26 03:10:02;;;;;;;25.95;12.30;;;;;;;17.13;79.01;99555.16;6118200;23;20044;-80
2023/07/26 03:12:29;;;;;;;23.65;12.95;;;;;;;17.13;78.76;99557.00;6094403;23;20429;-81
2023/07/26 03:14:56;;;;;;;27.80;13.63;;;;;;;17.13;78.82;99571.25;6118774;23;20117;-81
2023/07/26 03:17:23;;;;;;;24.98;13.60;;;;;;;17.10;78.96;99568.94;6093613;23;20032;-81
2023/07/26 03:19:52;;;;;;;24.23;11.77;;;;;;;17.08;79.12;99570.13;6095053;23;20025;-81
2023/07/26 03:22:19;;;;;;;26.13;12.70;;;;;;;17.04;79.16;99568.84;6070483;23;20029;-82
2023/07/26 03:24:46;;;;;;;26.33;12.48;;;;;;;17.03;79.29;99570.69;6116664;23;20446;-81
2023/07/26 03:27:13;;;;;;;24.70;12.40;;;;;;;17.00;79.24;99573.75;6093961;23;20026;-81
2023/07/26 03:29:40;;;;;;;25.27;12.18;;;;;;;17.01;79.25;99579.94;6118688;23;20188;-81
2023/07/26 03:32:08;;;;;;;26.23;13.05;;;;;;;17.01;79.10;99588.81;6088378;23;20021;-81
2023/07/26 03:34:34;;;;;;;30.00;12.57;;;;;;;17.00;79.21;99584.47;6068166;23;20026;-81
2023/07/26 03:37:02;;;;;;;21.27;12.68;;;;;;;17.00;79.21;99589.84;6094615;23;20025;-85
2023/07/26 03:39:29;;;;;;;25.80;12.13;;;;;;;17.01;79.18;99580.75;6070477;23;20021;-87
2023/07/26 03:41:57;;;;;;;26.60;12.88;;;;;;;17.01;79.22;99575.41;6094621;23;20026;-86
2023/07/26 03:44:24;;;;;;;28.02;13.55;;;;;;;17.02;79.13;99576.22;6093546;23;20093;-86
2023/07/26 03:46:50;;;;;;;24.80;14.32;;;;;;;17.02;78.98;99586.97;6071548;23;20017;-87
2023/07/26 03:49:17;;;;;;;24.15;13.45;;;;;;;17.03;78.99;99577.91;6093894;23;20021;-86
2023/07/26 03:51:44;;;;;;;27.48;13.65;;;;;;;17.01;79.08;99588.81;6094067;23;20021;-87
2023/07/26 03:54:11;;;;;;;24.17;13.23;;;;;;;17.00;78.91;99589.00;6094197;23;20021;-86
2023/07/26 03:56:38;;;;;;;26.75;14.20;;;;;;;16.98;79.20;99589.19;6094279;23;20021;-85
2023/07/26 03:59:05;;;;;;;26.35;14.25;;;;;;;16.98;78.94;99588.34;6117740;23;20029;-86
2023/07/26 04:01:32;;;;;;;25.08;13.98;;;;;;;16.98;78.89;99591.03;6071300;23;20017;-86
2023/07/26 04:03:59;;;;;;;33.63;14.75;;;;;;;16.97;78.77;99587.53;6093604;23;20021;-86
2023/07/26 04:06:26;;;;;;;30.50;15.95;;;;;;;17.00;78.70;99600.56;6095699;23;20034;-85
2023/07/26 04:08:52;;;;;;;31.20;15.90;;;;;;;16.99;78.64;99592.69;6093295;23;20036;-85
2023/07/26 04:11:19;;;;;;;26.90;15.98;;;;;;;17.00;78.83;99591.69;6118759;23;20021;-86
2023/07/26 04:13:47;;;;;;;37.13;18.40;;;;;;;17.00;78.62;99586.34;6118494;23;20104;-86
2023/07/26 04:16:18;;;;;;;27.90;16.55;;;;;;;17.01;78.74;99596.03;6094635;23;20025;-86
2023/07/26 04:18:45;;;;;;;38.10;17.20;;;;;;;17.01;78.60;99590.66;6118783;23;20029;-87
2023/07/26 04:21:14;;;;;;;30.95;18.63;;;;;;;16.99;78.67;99606.09;6070786;23;20025;-87
2023/07/26 04:23:42;;;;;;;35.28;18.45;;;;;;;16.99;78.58;99604.25;6093302;23;20048;-85
2023/07/26 04:26:09;;;;;;;32.70;17.60;;;;;;;16.98;78.56;99610.66;6070328;23;20125;-85
2023/07/26 04:28:36;;;;;;;35.30;19.42;;;;;;;16.99;78.81;99614.97;6095146;23;20060;-86
2023/07/26 04:31:03;;;;;;;35.88;19.52;;;;;;;16.98;78.48;99613.31;6093661;23;20091;-86
2023/07/26 04:33:30;;;;;;;36.20;18.73;;;;;;;16.98;78.56;99624.06;6092879;23;20963;-85
2023/07/26 04:35:57;;;;;;;34.90;18.92;;;;;;;16.99;78.43;99619.50;6118865;23;20017;-86
2023/07/26 04:38:25;;;;;;;31.52;19.23;;;;;;;17.00;78.51;99616.66;6093839;23;20072;-86
2023/07/26 04:40:52;;;;;;;30.83;19.85;;;;;;;17.00;78.64;99616.66;6070847;23;20028;-86
2023/07/26 04:43:21;;;;;;;35.70;19.33;;;;;;;16.99;78.76;99617.66;6093656;23;20021;-86
2023/07/26 04:45:50;;;;;;;33.72;19.63;;;;;;;16.99;79.02;99625.72;6094335;23;20353;-86
2023/07/26 04:48:17;;;;;;;38.42;21.55;;;;;;;16.99;79.12;99620.34;6092578;23;20028;-86
2023/07/26 04:50:45;;;;;;;37.63;21.27;;;;;;;17.00;78.84;99632.75;6092964;23;20085;-85
2023/07/26 04:53:12;;;;;;;38.85;20.77;;;;;;;17.01;78.58;99626.38;6118172;23;20327;-85
2023/07/26 04:55:43;;;;;;;33.55;20.67;;;;;;;17.04;78.62;99622.47;6045790;23;20052;-85
2023/07/26 04:58:11;;;;;;;35.80;19.98;;;;;;;17.04;78.35;99626.00;6095852;23;20021;-86
2023/07/26 05:00:41;;;;;;;35.55;19.48;;;;;;;17.06;77.99;99629.34;6048343;23;20096;-86
2023/07/26 05:03:09;;;;;;;34.53;21.25;;;;;;;17.05;78.13;99627.69;6095487;23;20029;-86
2023/07/26 05:05:37;;;;;;;31.50;19.77;;;;;;;17.07;77.65;99632.84;6095838;23;20047;-86
2023/07/26 05:08:05;;;;;;;34.70;20.88;;;;;;;17.07;77.77;99627.47;6095330;23;20040;-85
2023/07/26 05:10:32;;;;;;;27.63;18.98;;;;;;;17.06;77.70;99632.00;6072027;23;20033;-86
2023/07/26 05:12:59;;;;;;;27.83;18.10;;;;;;;17.05;77.75;99630.38;6070898;23;20022;-85
2023/07/26 05:15:26;;;;;;;43.72;19.02;;;;;;;17.07;77.69;99640.88;6120205;23;20030;-85
2023/07/26 05:17:53;;;;;;;30.77;18.83;;;;;;;17.05;78.14;99638.41;6120080;23;20032;-85
2023/07/26 05:20:20;;;;;;;28.80;18.88;;;;;;;17.06;78.21;99647.28;6096353;23;20458;-85
2023/07/26 05:22:47;;;;;;;30.75;17.35;;;;;;;17.03;77.99;99637.75;6070169;23;20025;-86
2023/07/26 05:25:14;;;;;;;29.60;18.77;;;;;;;17.07;78.53;99638.22;6120171;23;20098;-86
2023/07/26 05:27:41;;;;;;;31.70;18.10;;;;;;;17.07;78.24;99639.06;6119449;23;20025;-86
2023/07/26 05:30:08;;;;;;;31.00;17.35;;;;;;;17.09;78.21;99649.59;6120483;23;20463;-87
2023/07/26 05:32:35;;;;;;;40.97;17.48;;;;;;;17.09;77.85;99655.78;6094318;23;20354;-85
2023/07/26 05:35:03;;;;;;;24.40;17.13;;;;;;;17.08;77.71;99646.09;6093646;23;20048;-85
2023/07/26 05:37:34;;;;;;;32.05;17.55;;;;;;;17.08;77.03;99653.31;6120427;23;20017;-86
2023/07/26 05:40:01;;;;;;;30.63;17.85;;;;;;;17.08;77.59;99658.69;6071608;23;20105;-86
2023/07/26 05:42:28;;;;;;;28.35;17.83;;;;;;;17.10;77.68;99660.16;6095110;23;20033;-86
2023/07/26 05:44:55;;;;;;;30.15;18.38;;;;;;;17.10;78.34;99667.38;6070917;23;20022;-86
2023/07/26 05:47:22;;;;;;;27.20;17.77;;;;;;;17.13;78.47;99667.00;6096061;23;20025;-86
2023/07/26 05:49:48;;;;;;;31.08;16.77;;;;;;;17.14;78.42;99666.81;6096195;23;20039;-86
2023/07/26 05:52:15;;;;;;;29.98;17.83;;;;;;;17.15;78.37;99662.31;6069688;23;20691;-86
2023/07/26 05:54:42;;;;;;;39.33;17.85;;;;;;;17.18;78.58;99669.97;6094545;23;20033;-86
2023/07/26 05:57:09;;;;;;;28.77;18.20;;;;;;;17.21;78.44;99668.78;6071786;23;20021;-86
2023/07/26 05:59:36;;;;;;;30.05;17.70;;;;;;;17.25;78.58;99664.69;6047870;23;20354;-86
2023/07/26 06:02:04;;;;;;;29.17;16.35;;;;;;;17.27;78.52;99662.66;6095716;23;20025;-85
2023/07/26 06:04:30;;;;;;;25.63;15.38;;;;;;;17.27;78.61;99668.88;6093265;23;20021;-86
2023/07/26 06:06:57;;;;;;;28.88;15.85;;;;;;;17.30;78.51;99670.34;6095369;23;20045;-86
2023/07/26 06:09:25;;;;;;;25.90;16.75;;;;;;;17.28;78.36;99669.72;6095648;23;20029;-87
2023/07/26 06:11:52;;;;;;;28.40;14.95;;;;;;;17.26;77.92;99669.06;6094571;23;20045;-87
2023/07/26 06:14:24;;;;;;;21.85;14.38;;;;;;;17.24;77.70;99677.28;6118962;23;20461;-86
2023/07/26 06:16:53;;;;;;;25.90;16.10;;;;;;;17.21;77.72;99676.81;6071130;23;20033;-87
2023/07/26 06:19:21;;;;;;;23.65;14.98;;;;;;;17.20;77.55;99681.38;6119931;23;20092;-86
2023/07/26 06:21:48;;;;;;;21.77;16.02;;;;;;;17.18;77.26;99693.28;6094481;23;20033;-86
2023/07/26 06:24:14;;;;;;;26.20;17.15;;;;;;;17.16;77.44;99689.97;6094134;23;20041;-87
2023/07/26 06:26:42;;;;;;;29.55;17.52;;;;;;;17.16;77.02;99700.69;6095351;23;20526;-87
2023/07/26 06:29:08;;;;;;;26.40;16.88;;;;;;;17.13;77.17;99705.41;6095151;23;20022;-86
2023/07/26 06:31:35;;;;;;;31.25;17.13;;;;;;;17.13;77.13;99710.75;6093959;23;20387;-86
2023/07/26 06:34:02;;;;;;;29.23;15.55;;;;;;;17.13;76.97;99716.13;6093466;23;20028;-85
2023/07/26 06:36:29;;;;;;;24.10;15.10;;;;;;;17.12;77.27;99706.44;6095447;23;20025;-87
2023/07/26 06:38:56;;;;;;;22.38;14.18;;;;;;;17.14;76.94;99712.41;6070877;23;20022;-86
2023/07/26 06:41:23;;;;;;;27.80;14.85;;;;;;;17.13;77.19;99705.41;6117943;23;20049;-86
2023/07/26 06:43:50;;;;;;;23.83;14.13;;;;;;;17.13;77.51;99710.75;6093950;23;20027;-86
2023/07/26 06:46:17;;;;;;;21.00;13.23;;;;;;;17.16;77.51;99708.75;6120052;23;20022;-85
2023/07/26 06:48:44;;;;;;;22.30;13.32;;;;;;;17.12;77.63;99711.78;6069033;23;20025;-86
2023/07/26 06:51:12;;;;;;;25.33;14.48;;;;;;;17.18;77.89;99717.44;6119694;23;20521;-86
2023/07/26 06:53:39;;;;;;;24.25;13.65;;;;;;;17.17;77.64;99716.59;6118888;23;20024;-86
2023/07/26 06:56:06;;;;;;;23.50;13.77;;;;;;;17.16;77.77;99714.94;6071295;23;20314;-86
2023/07/26 06:58:33;;;;;;;24.42;13.30;;;;;;;17.13;78.14;99718.81;6094547;23;20346;-86
2023/07/26 07:01:00;;;;;;;20.77;14.00;;;;;;;17.12;78.11;99729.72;6070776;23;20346;-87
2023/07/26 07:03:27;;;;;;;27.70;13.23;;;;;;;17.13;78.35;99728.72;6117932;23;20395;-87
2023/07/26 07:05:54;;;;;;;20.90;13.57;;;;;;;17.08;78.38;99725.75;6094921;23;20021;-86
2023/07/26 07:08:21;;;;;;;30.80;13.70;;;;;;;17.07;78.32;99716.00;6119402;23;20085;-86
2023/07/26 07:10:48;;;;;;;21.10;13.27;;;;;;;17.07;78.32;99721.38;6046906;23;20029;-87
2023/07/26 07:13:15;;;;;;;23.88;13.38;;;;;;;17.03;77.81;99728.13;6094665;23;20021;-87
2023/07/26 07:15:42;;;;;;;25.20;13.68;;;;;;;17.02;78.16;99732.66;6119194;23;20021;-86
2023/07/26 07:18:09;;;;;;;20.83;12.77;;;;;;;17.00;78.87;99740.06;6117998;23;20017;-86
2023/07/26 07:20:42;;;;;;;22.73;13.07;;;;;;;17.00;79.05;99744.59;6071072;23;20398;-87
2023/07/26 07:23:09;;;;;;;20.02;11.70;;;;;;;17.01;78.96;99749.75;6118255;23;20033;-87
2023/07/26 07:25:38;;;;;;;23.45;13.55;;;;;;;17.02;79.18;99748.75;6095279;23;20076;-86
2023/07/26 07:28:05;;;;;;;21.73;12.68;;;;;;;17.03;78.83;99744.22;6117885;23;20025;-87
2023/07/26 07:30:32;;;;;;;20.63;12.90;;;;;;;17.03;79.20;99750.41;6094672;23;20029;-86
2023/07/26 07:32:59;;;;;;;21.40;12.75;;;;;;;17.02;79.20;99748.75;6095134;23;20017;-87
2023/07/26 07:35:27;;;;;;;24.30;13.52;;;;;;;17.03;79.50;99747.75;6094677;23;20018;-86
2023/07/26 07:37:54;;;;;;;22.58;12.73;;;;;;;17.01;78.90;99735.53;6118842;23;20076;-87
2023/07/26 07:40:21;;;;;;;20.17;11.20;;;;;;;17.03;78.61;99733.50;6094193;23;20075;-87
2023/07/26 07:42:48;;;;;;;21.45;13.32;;;;;;;17.05;78.40;99739.53;6094723;23;20084;-86
2023/07/26 07:45:15;;;;;;;22.65;12.77;;;;;;;17.06;78.75;99736.63;6093297;23;20699;-86
2023/07/26 07:47:42;;;;;;;19.08;12.18;;;;;;;17.08;78.45;99736.47;6095004;23;20040;-87
2023/07/26 07:50:09;;;;;;;21.30;12.05;;;;;;;17.07;78.46;99734.78;6071043;23;20021;-87
2023/07/26 07:52:36;;;;;;;22.00;12.52;;;;;;;17.08;78.39;99734.63;6094051;23;20137;-86
2023/07/26 07:55:03;;;;;;;23.52;12.98;;;;;;;17.08;79.16;99739.16;6070580;23;20021;-86
2023/07/26 07:57:29;;;;;;;19.95;13.07;;;;;;;17.10;79.34;99739.81;6069949;23;20048;-86
2023/07/26 07:59:56;;;;;;;22.17;13.20;;;;;;;17.11;79.65;99730.75;6094656;23;20083;-87
2023/07/26 08:02:23;;;;;;;19.92;12.88;;;;;;;17.07;79.86;99732.97;6047474;23;20021;-86
2023/07/26 08:04:50;;;;;;;22.10;13.82;;;;;;;17.08;79.46;99729.25;6117222;23;20076;-86
2023/07/26 08:07:17;;;;;;;22.27;12.73;;;;;;;17.11;79.74;99733.44;6094203;23;20080;-87
2023/07/26 08:09:44;;;;;;;22.13;13.50;;;;;;;17.13;80.15;99739.44;6093746;23;20076;-87
2023/07/26 08:12:12;;;;;;;26.20;12.57;;;;;;;17.12;79.60;99727.88;6093877;23;20049;-86
2023/07/26 08:14:39;;;;;;;20.38;13.77;;;;;;;17.13;79.21;99740.28;6093261;23;20024;-86
2023/07/26 08:17:06;;;;;;;23.42;13.55;;;;;;;17.15;78.75;99732.06;6094167;23;20077;-86
2023/07/26 08:19:33;;;;;;;19.63;13.10;;;;;;;17.16;78.29;99741.75;6094985;23;20026;-86
2023/07/26 08:22:00;;;;;;;21.40;13.30;;;;;;;17.16;78.87;99736.41;6094042;23;20030;-86
2023/07/26 08:24:27;;;;;;;28.77;12.98;;;;;;;17.22;79.43;99742.88;6094652;23;20017;-87
2023/07/26 08:26:55;;;;;;;21.52;13.27;;;;;;;17.26;79.60;99747.72;6070148;23;20269;-87
2023/07/26 08:29:21;;;;;;;21.05;12.63;;;;;;;17.25;78.65;99735.31;6093643;23;20025;-86
2023/07/26 08:31:49;;;;;;;20.67;12.15;;;;;;;17.27;79.05;99746.69;6119159;23;20043;-85
2023/07/26 08:34:16;;;;;;;18.30;11.82;;;;;;;17.28;78.37;99739.50;6070659;23;20045;-86
2023/07/26 08:36:42;;;;;;;16.45;11.10;;;;;;;17.32;77.43;99738.94;6072273;23;20095;-87
2023/07/26 08:39:10;;;;;;;21.15;11.90;;;;;;;17.35;77.63;99737.72;6095917;23;20022;-87
2023/07/26 08:41:56;;;;;;;23.98;13.13;;;;;;;17.40;77.69;99746.06;6099173;23;20025;-86
2023/07/26 08:44:24;;;;;;;17.85;11.80;;;;;;;17.46;77.68;99747.22;6095154;23;20112;-86
2023/07/26 08:46:52;;;;;;;18.98;12.30;;;;;;;17.52;77.67;99749.16;6097040;23;20056;-87
2023/07/26 08:49:19;;;;;;;21.70;12.05;;;;;;;17.55;77.08;99740.72;6120605;23;20045;-86
2023/07/26 08:51:46;;;;;;;19.92;11.90;;;;;;;17.54;76.95;99753.31;6119891;23;20021;-85
2023/07/26 08:54:13;;;;;;;14.10;10.15;;;;;;;17.57;77.26;99749.44;6095649;23;20646;-87
2023/07/26 08:56:40;;;;;;;15.80;11.02;;;;;;;17.57;77.71;99746.75;6096331;23;20471;-87
2023/07/26 08:59:07;;;;;;;21.80;10.68;;;;;;;17.59;77.64;99744.72;6096065;23;20026;-88
2023/07/26 09:01:37;;;;;;;17.92;10.20;;;;;;;17.61;77.61;99749.94;6096144;23;20327;-87
2023/07/26 09:04:25;;;;;;;17.98;12.30;;;;;;;17.62;77.34;99751.59;6099694;23;20103;-86
2023/07/26 09:06:53;;;;;;;19.05;11.20;;;;;;;17.63;77.08;99746.03;6073209;23;20076;-87
2023/07/26 09:09:21;;;;;;;18.63;11.10;;;;;;;17.68;76.97;99743.63;6094371;23;20025;-86
2023/07/26 09:11:49;;;;;;;15.80;10.10;;;;;;;17.75;77.44;99749.09;6095300;23;20327;-87
2023/07/26 09:14:17;;;;;;;14.50;10.38;;;;;;;17.83;76.39;99745.50;6071569;23;20418;-87
2023/07/26 09:16:46;;;;;;;19.65;10.38;;;;;;;17.89;76.31;99751.00;6096493;23;20088;-89
2023/07/26 09:19:13;;;;;;;21.95;9.38;;;;;;;17.91;75.40;99751.63;6095321;23;20036;-88
2023/07/26 09:21:40;;;;;;;15.05;8.75;;;;;;;17.92;75.88;99739.03;6095245;23;20100;-87
2023/07/26 09:24:07;;;;;;;11.35;9.48;;;;;;;17.98;75.96;99744.47;6095228;23;20017;-87
2023/07/26 09:26:39;;;;;;;13.68;9.10;;;;;;;18.04;75.62;99742.94;6095770;23;20021;-87
2023/07/26 09:29:16;;;;;;;14.32;8.45;;;;;;;18.05;75.68;99749.94;6070896;23;20022;-88
2023/07/26 09:31:43;;;;;;;10.63;7.70;;;;;;;18.06;75.52;99748.09;6120408;23;20018;-86
2023/07/26 09:34:14;;;;;;;12.63;8.55;;;;;;;18.06;75.32;99745.41;6118771;23;20030;-86
2023/07/26 09:36:46;;;;;;;12.82;7.97;;;;;;;18.08;75.28;99743.38;6048021;23;20101;-87
2023/07/26 09:39:13;;;;;;;16.30;8.63;;;;;;;18.11;75.70;99741.13;6095867;23;20024;-86
2023/07/26 09:41:40;;;;;;;11.65;7.32;;;;;;;18.14;76.00;99738.09;6118835;23;20033;-87
2023/07/26 09:44:17;;;;;;;13.60;7.35;;;;;;;18.15;75.94;99741.63;6070504;23;20033;-86
2023/07/26 09:47:00;;;;;;;10.07;7.10;;;;;;;18.12;75.47;99739.31;6071156;23;20469;-86
2023/07/26 09:49:29;;;;;;;12.25;6.32;;;;;;;18.12;74.45;99748.19;6071885;23;20456;-86
2023/07/26 09:52:00;;;;;;;12.82;6.60;;;;;;;18.06;73.89;99746.25;6119716;23;20828;-86
2023/07/26 09:54:32;;;;;;;11.93;5.85;;;;;;;18.09;74.43;99745.88;6096355;23;20021;-86
2023/07/26 09:57:03;;;;;;;11.50;6.13;;;;;;;18.15;74.28;99747.00;6096080;23;20021;-86
2023/07/26 09:59:31;;;;;;;13.15;6.03;;;;;;;18.18;74.35;99744.75;6095115;23;20045;-87
2023/07/26 10:01:59;;;;;;;13.63;6.30;;;;;;;18.25;74.41;99744.84;6095723;23;20105;-87
2023/07/26 10:04:50;;;;;;;9.70;5.10;;;;;;;18.11;72.44;99746.50;6094836;23;20075;-86
2023/07/26 10:07:18;;;;;;;8.18;5.72;;;;;;;18.24;73.89;99729.72;6094312;23;20017;-88
2023/07/26 10:09:46;;;;;;;13.93;5.65;;;;;;;18.29;73.39;99743.44;6094336;23;20444;-88
2023/07/26 10:12:14;;;;;;;6.63;5.40;;;;;;;18.32;73.24;99735.00;6119775;23;20041;-87
2023/07/26 10:14:41;;;;;;;8.35;5.50;;;;;;;18.36;72.84;99733.59;6118253;23;20025;-87
2023/07/26 10:17:10;;;;;;;6.95;4.97;;;;;;;18.36;72.81;99730.91;6071511;23;20025;-89
2023/07/26 10:19:38;;;;;;;12.60;5.82;;;;;;;18.40;71.98;99724.13;6095051;23;20104;-87
2023/07/26 10:22:07;;;;;;;6.55;4.93;;;;;;;18.40;72.38;99726.81;6071036;23;20038;-88
2023/07/26 10:24:36;;;;;;;5.47;4.93;;;;;;;18.39;71.56;99730.56;6118865;23;20025;-87
2023/07/26 10:27:04;;;;;;;6.53;5.28;;;;;;;18.43;71.88;99723.75;6046434;23;20013;-89
2023/07/26 10:29:31;;;;;;;8.55;5.15;;;;;;;18.46;71.22;99717.16;6047046;23;20025;-88
2023/07/26 10:32:06;;;;;;;8.70;6.18;;;;;;;18.40;69.94;99716.06;6119693;23;20013;-88
2023/07/26 10:34:34;;;;;;;9.18;5.05;;;;;;;18.41;70.48;99709.66;6094664;23;20604;-88
2023/07/26 10:37:18;;;;;;;8.05;5.78;;;;;;;18.40;69.87;99717.94;6070841;23;20033;-88
2023/07/26 10:39:46;;;;;;;8.00;4.97;;;;;;;18.47;70.20;99713.47;6095227;23;20454;-88
2023/07/26 10:42:27;;;;;;;11.13;5.70;;;;;;;18.46;69.29;99711.78;6119214;23;20483;-87
2023/07/26 10:45:01;;;;;;;11.15;5.85;;;;;;;18.53;69.56;99714.56;6117621;23;20582;-87
2023/07/26 10:47:29;;;;;;;9.65;5.28;;;;;;;18.55;69.67;99716.03;6095463;23;20017;-88
2023/07/26 10:50:06;;;;;;;9.95;5.57;;;;;;;18.51;68.57;99713.91;6120034;23;20021;-87
2023/07/26 10:52:35;;;;;;;8.45;5.53;;;;;;;18.49;68.32;99715.94;6070806;23;20026;-88
2023/07/26 10:55:19;;;;;;;11.43;5.72;;;;;;;18.34;66.11;99716.84;6117299;23;20017;-88
2023/07/26 10:57:49;;;;;;;21.17;7.03;;;;;;;18.43;67.89;99709.47;6118856;23;20026;-87
2023/07/26 11:00:23;;;;;;;9.30;5.30;;;;;;;18.51;68.76;99703.16;6070942;23;20524;-87
2023/07/26 11:02:59;;;;;;;8.65;5.38;;;;;;;18.61;69.38;99701.81;6117835;23;20084;-87
2023/07/26 11:05:30;;;;;;;7.28;4.68;;;;;;;18.70;69.14;99699.84;6070169;23;20029;-87
2023/07/26 11:08:02;;;;;;;14.10;6.45;;;;;;;18.75;67.68;99692.06;6118077;23;20041;-87
2023/07/26 11:10:36;;;;;;;9.30;5.72;;;;;;;18.81;67.39;99693.16;6119609;23;20026;-87
2023/07/26 11:13:08;;;;;;;9.45;5.25;;;;;;;18.77;67.38;99692.69;6117288;23;20167;-88
2023/07/26 11:15:37;;;;;;;13.98;5.80;;;;;;;18.75;67.76;99700.13;6094516;23;20636;-87
2023/07/26 11:18:24;;;;;;;8.57;4.95;;;;;;;18.72;67.42;99686.19;6073444;23;20044;-88
2023/07/26 11:20:52;;;;;;;9.82;4.78;;;;;;;18.70;67.86;99691.78;6095153;23;20088;-87
2023/07/26 11:23:23;;;;;;;8.57;4.72;;;;;;;18.71;67.70;99688.06;6092281;23;20108;-87